aviador You're here:

KCSM Decoded Metar

CLINTON in OK, USA
Report Time2017-11-23 13:53:00
UTC Time2017-11-23 14:55:29
Flight Rules vfr VFR
Wind250° at 04 kt
W.Decomp.*RWY 17: 1.2 kt HW 3.8 kt RCW
W.Rank250° ranks 32
Current wind is below 250° avg. (8.6)
Visibility9999 m
Phenomena:N/A
Clouds:N/A
Expected CloudBase > 4,000 ft AGL from Temp-Dew spread
CeilingNone
Temp04°C (ISA -7)
Dew Point-6°C (48% RH)
AAT-0.2°C
QNH1020 hPa
Density Alt889 ft
Elevation1,929 ft
Report Wrong Elevation
Raw Report
KCSM 231353Z AUTO 25004KT 10SM CLR 04/M06 A3012 RMK AO2 SLP203
T00441056=

Extra information for KCSM:More info

Metar Taf Metar & Taf Last 4 Metars F.Rules Stats Wind Profile Meteogram Temp Stats Airport Information Weather charts Add Link Nearby VenuesMetar ALERT Operation Metar Decoded Social comments

AIRNAV info for KCSM